Time;durP1;ratioP1;P1;durP2;ratioP2;P2;SDS_P1;SDS_P2;PMS_P1;PMS_P2;Temp;Humidity;BMP_temperature;BMP_pressure;BME280_temperature;BME280_humidity;BME280_pressure;Samples;Min_cycle;Max_cycle;Signal;HPM_P1;HPM_P2
2021/12/02 00:00:25;;;;;;;13.40;2.80;;;;;;;3.91;96.20;99864.19;5014391;28;20025;-86
2021/12/02 00:02:50;;;;;;;10.43;2.40;;;;;;;3.91;95.79;99874.59;5014476;28;20021;-86
2021/12/02 00:05:16;;;;;;;9.13;2.38;;;;;;;3.90;95.94;99879.88;5012979;28;20025;-86
2021/12/02 00:07:41;;;;;;;16.90;2.80;;;;;;;3.90;95.27;99869.47;5031415;28;20030;-86
2021/12/02 00:10:07;;;;;;;10.70;2.70;;;;;;;3.93;96.04;99877.94;5032513;28;20706;-92
2021/12/02 00:12:33;;;;;;;10.90;2.53;;;;;;;3.95;96.49;99888.25;5031957;28;20056;-91
2021/12/02 00:15:05;;;;;;;19.17;2.20;;;;;;;3.94;96.35;99886.56;5013854;28;20426;-92
2021/12/02 00:17:35;;;;;;;12.70;2.72;;;;;;;3.95;96.61;99888.25;5020967;28;20029;-86
2021/12/02 00:23:22;;;;;;;9.82;2.28;;;;;;;3.95;96.49;99896.88;5022011;28;20041;-86
2021/12/02 00:25:49;;;;;;;11.80;2.22;;;;;;;3.93;96.32;99884.91;4988599;28;20053;-92
2021/12/02 00:28:14;;;;;;;11.23;2.17;;;;;;;3.95;96.53;99891.69;5031557;28;20514;-92
2021/12/02 00:30:40;;;;;;;11.40;2.40;;;;;;;3.96;96.45;99890.75;5032332;28;20073;-92
2021/12/02 00:33:05;;;;;;;6.78;2.20;;;;;;;3.96;96.47;99888.16;5032114;28;20037;-92
2021/12/02 00:35:31;;;;;;;8.60;2.15;;;;;;;3.92;96.15;99876.25;5031681;28;20326;-92
2021/12/02 00:37:58;;;;;;;10.25;2.08;;;;;;;3.91;96.04;99876.34;5028641;28;20107;-92
2021/12/02 00:40:23;;;;;;;10.15;2.17;;;;;;;3.87;96.53;99869.66;5012097;28;20072;-92
2021/12/02 00:42:50;;;;;;;8.40;2.13;;;;;;;3.88;96.09;99876.53;5013810;28;20563;-86
2021/12/02 00:45:15;;;;;;;14.40;2.70;;;;;;;3.88;96.79;99872.19;5030891;28;20869;-86
2021/12/02 00:47:45;;;;;;;11.57;2.20;;;;;;;3.90;96.78;99872.09;5009843;28;20029;-86
2021/12/02 00:50:10;;;;;;;14.90;2.47;;;;;;;3.89;96.58;99871.25;4994755;28;20033;-92
2021/12/02 00:52:37;;;;;;;8.30;2.30;;;;;;;3.86;96.95;99879.25;5012107;28;20021;-92
2021/12/02 00:55:03;;;;;;;9.80;2.35;;;;;;;3.86;96.51;99873.22;4999333;28;20049;-86
2021/12/02 00:57:29;;;;;;;6.57;2.28;;;;;;;3.87;96.57;99877.47;5013435;28;20021;-86
2021/12/02 00:59:57;;;;;;;10.73;2.42;;;;;;;3.85;96.76;99874.97;5032075;28;20026;-92
2021/12/02 01:02:23;;;;;;;11.45;2.25;;;;;;;3.80;97.26;99858.81;5031791;28;20072;-86
2021/12/02 01:04:49;;;;;;;13.73;2.60;;;;;;;3.82;97.49;99863.91;5030058;28;20417;-86
2021/12/02 01:07:15;;;;;;;10.25;2.05;;;;;;;3.83;97.69;99873.41;5013824;28;20071;-86
2021/12/02 01:09:41;;;;;;;10.63;2.17;;;;;;;3.84;97.49;99869.88;5030742;28;20052;-86
2021/12/02 01:12:07;;;;;;;9.38;2.63;;;;;;;3.85;98.14;99874.13;5029254;28;20484;-86
2021/12/02 01:14:32;;;;;;;10.80;2.28;;;;;;;3.88;98.10;99879.16;5031041;28;20450;-86
2021/12/02 01:16:57;;;;;;;12.50;2.30;;;;;;;3.90;98.10;99879.88;5009759;28;20032;-92
2021/12/02 01:19:23;;;;;;;11.82;2.10;;;;;;;3.88;97.84;99885.19;5011404;28;20041;-86
2021/12/02 01:21:48;;;;;;;9.07;1.95;;;;;;;3.88;98.16;99881.75;5010852;28;20022;-85
2021/12/02 01:24:16;;;;;;;10.43;2.10;;;;;;;3.87;97.91;99895.69;5010417;28;20520;-85
2021/12/02 01:26:57;;;;;;;9.68;2.00;;;;;;;3.87;98.09;99880.09;4993397;28;20030;-86
2021/12/02 01:29:24;;;;;;;10.38;1.73;;;;;;;3.88;98.34;99873.94;5004674;28;20033;-91
2021/12/02 01:31:52;;;;;;;7.80;1.30;;;;;;;3.81;97.37;99870.06;5013284;28;20029;-92
2021/12/02 01:34:26;;;;;;;6.50;1.40;;;;;;;3.85;96.78;99884.53;5031207;28;20032;-92
2021/12/02 01:36:53;;;;;;;6.03;1.38;;;;;;;3.86;97.40;99886.22;5030926;28;20036;-92
2021/12/02 01:39:18;;;;;;;4.13;1.55;;;;;;;3.84;96.83;99891.50;5030290;28;20026;-86
2021/12/02 01:41:56;;;;;;;6.43;1.80;;;;;;;3.85;96.90;99894.94;5013227;28;20033;-92
2021/12/02 01:44:23;;;;;;;8.15;1.88;;;;;;;3.80;97.41;99890.03;5031435;28;20025;-86
2021/12/02 01:46:54;;;;;;;9.70;2.15;;;;;;;3.78;97.12;99892.72;5001979;28;20018;-86
2021/12/02 01:49:22;;;;;;;7.25;1.75;;;;;;;3.77;96.72;99890.22;5029442;28;20551;-86
2021/12/02 01:51:50;;;;;;;9.73;2.42;;;;;;;3.75;97.39;99892.91;5031254;28;20021;-92
2021/12/02 01:54:25;;;;;;;6.80;2.00;;;;;;;3.73;96.88;99891.34;5030921;28;20044;-92
2021/12/02 01:56:53;;;;;;;7.80;1.88;;;;;;;3.67;97.04;99882.16;5013924;28;20029;-86
2021/12/02 01:59:38;;;;;;;5.45;1.70;;;;;;;3.71;97.77;99888.00;5006652;28;20131;-86
2021/12/02 02:02:10;;;;;;;5.85;2.03;;;;;;;3.68;97.09;99890.78;5010786;28;20046;-86
2021/12/02 02:04:35;;;;;;;8.30;1.60;;;;;;;3.64;96.83;99881.50;5010858;28;20413;-86
2021/12/02 02:07:10;;;;;;;5.93;1.50;;;;;;;3.62;96.69;99883.38;5041090;28;20030;-92
2021/12/02 02:09:36;;;;;;;5.63;1.63;;;;;;;3.59;97.10;99889.56;5027367;28;20041;-92
2021/12/02 02:12:07;;;;;;;4.20;1.42;;;;;;;3.59;96.55;99899.13;4994290;28;20025;-92
2021/12/02 02:14:34;;;;;;;8.25;1.50;;;;;;;3.57;96.39;99896.63;5012090;28;20033;-92
2021/12/02 02:17:04;;;;;;;5.97;1.40;;;;;;;3.54;96.57;99890.78;5013120;28;20048;-92
2021/12/02 02:19:31;;;;;;;4.75;1.60;;;;;;;3.48;96.25;99891.97;5030539;28;20103;-86
2021/12/02 02:21:58;;;;;;;9.52;1.60;;;;;;;3.42;96.28;99895.78;5010291;28;20017;-86
2021/12/02 02:24:23;;;;;;;6.85;1.70;;;;;;;3.37;96.18;99892.63;5012410;28;20199;-86
2021/12/02 02:26:49;;;;;;;5.93;1.63;;;;;;;3.32;95.75;99891.22;5012936;28;20119;-92
2021/12/02 02:29:15;;;;;;;7.63;1.60;;;;;;;3.29;96.25;99892.25;5012912;28;20041;-92
2021/12/02 02:31:45;;;;;;;8.77;1.58;;;;;;;3.26;95.93;99884.63;5031277;28;20491;-92
2021/12/02 02:34:14;;;;;;;5.32;1.60;;;;;;;3.22;96.59;99887.50;5014051;28;20037;-86
2021/12/02 02:36:52;;;;;;;6.72;1.73;;;;;;;3.22;96.70;99895.31;5012256;28;20112;-92
2021/12/02 02:39:19;;;;;;;5.53;1.70;;;;;;;3.21;96.53;99897.06;5029887;28;20030;-91
2021/12/02 02:41:46;;;;;;;6.82;1.42;;;;;;;3.19;96.52;99891.09;5012546;28;20235;-92
2021/12/02 02:44:14;;;;;;;6.60;1.63;;;;;;;3.19;96.48;99890.25;5030873;28;20082;-86
2021/12/02 02:46:41;;;;;;;6.63;1.40;;;;;;;3.14;95.93;99891.38;5030202;28;20036;-86
2021/12/02 02:49:14;;;;;;;5.07;1.25;;;;;;;3.17;96.03;99889.53;5012316;28;20025;-92
2021/12/02 02:51:40;;;;;;;;;;;;;;;3.24;96.09;99891.69;5031392;28;20037;-92
2021/12/02 02:54:08;;;;;;;9.07;1.30;;;;;;;3.13;95.38;99889.69;5030652;28;19913;-91
2021/12/02 02:56:40;;;;;;;8.60;1.45;;;;;;;3.09;95.37;99901.22;5025060;28;20032;-92
2021/12/02 03:01:51;;;;;;;6.50;1.40;;;;;;;3.05;95.73;99889.31;5022974;28;20108;-92
2021/12/02 03:04:41;;;;;;;5.57;1.40;;;;;;;3.05;95.71;99896.28;5029282;28;20025;-86
2021/12/02 03:07:32;;;;;;;7.65;1.52;;;;;;;3.03;95.51;99893.78;5030321;28;20072;-92
2021/12/02 03:12:31;;;;;;;7.00;1.77;;;;;;;2.95;95.88;99889.94;5035637;28;20400;-86
2021/12/02 03:17:27;;;;;;;6.22;1.70;;;;;;;2.85;96.46;99878.44;5034622;28;20049;-92
2021/12/02 03:19:52;;;;;;;6.78;1.60;;;;;;;2.92;95.89;99896.16;5016955;28;20033;-85
2021/12/02 03:22:18;;;;;;;9.82;1.60;;;;;;;2.93;96.56;99904.78;5034784;28;20109;-92
2021/12/02 03:24:43;;;;;;;10.15;1.63;;;;;;;2.92;96.84;99906.56;5034311;28;20514;-85
2021/12/02 03:27:08;;;;;;;9.70;1.85;;;;;;;2.87;96.83;99898.19;5034691;28;20438;-85
2021/12/02 03:29:34;;;;;;;6.22;1.50;;;;;;;2.89;96.45;99909.31;5011640;28;20113;-92
2021/12/02 03:32:00;;;;;;;7.28;1.90;;;;;;;2.91;97.09;99909.25;5034452;28;20032;-92
2021/12/02 03:34:25;;;;;;;10.77;2.00;;;;;;;2.93;97.00;99916.03;5034807;28;20025;-92
2021/12/02 03:36:51;;;;;;;5.97;1.55;;;;;;;2.92;97.58;99916.94;5034418;28;20029;-85
2021/12/02 03:39:17;;;;;;;11.70;2.38;;;;;;;2.94;97.48;99914.25;5033895;28;20036;-92
2021/12/02 03:41:45;;;;;;;7.63;1.55;;;;;;;2.97;97.70;99920.13;5018608;28;20030;-85
2021/12/02 03:44:14;;;;;;;6.50;1.45;;;;;;;2.95;97.67;99926.31;5014241;28;20034;-85
2021/12/02 03:46:41;;;;;;;6.13;1.40;;;;;;;2.96;97.13;99933.19;5022840;28;20084;-92
2021/12/02 03:49:07;;;;;;;14.98;1.83;;;;;;;3.00;97.77;99934.69;5016419;28;20018;-92
2021/12/02 03:51:33;;;;;;;7.93;1.33;;;;;;;3.02;97.27;99938.88;5015667;28;20021;-92
2021/12/02 03:53:59;;;;;;;11.38;1.75;;;;;;;3.02;97.04;99920.69;5032740;28;20032;-86
2021/12/02 03:56:25;;;;;;;7.30;1.48;;;;;;;3.04;97.73;99921.44;5033115;28;20332;-86
2021/12/02 03:58:52;;;;;;;9.55;1.65;;;;;;;3.01;97.09;99915.56;5014912;28;20077;-86
2021/12/02 04:01:18;;;;;;;6.07;1.83;;;;;;;2.95;96.43;99901.19;5021268;28;20025;-92
2021/12/02 04:03:44;;;;;;;7.10;1.67;;;;;;;2.99;96.85;99907.88;5019942;28;20107;-86
2021/12/02 04:06:10;;;;;;;6.65;1.40;;;;;;;3.00;95.76;99917.34;5032807;28;20049;-92
2021/12/02 04:11:21;;;;;;;7.22;1.48;;;;;;;2.94;95.91;99904.69;5031544;28;20369;-92
2021/12/02 04:16:35;;;;;;;6.20;1.10;;;;;;;2.90;96.15;99905.81;5033472;28;20202;-92
2021/12/02 04:19:05;;;;;;;4.68;1.25;;;;;;;2.93;96.09;99908.22;5015294;28;20032;-86
2021/12/02 04:21:31;;;;;;;3.65;1.00;;;;;;;2.89;96.18;99904.13;5030809;28;20029;-86
2021/12/02 04:23:56;;;;;;;6.60;1.17;;;;;;;2.86;95.86;99900.88;5033403;28;20136;-92
2021/12/02 04:26:23;;;;;;;10.00;1.33;;;;;;;2.88;96.01;99909.41;5033215;28;20026;-92
2021/12/02 04:28:48;;;;;;;5.03;0.85;;;;;;;2.80;95.98;99896.84;5032734;28;20092;-92
2021/12/02 04:31:31;;;;;;;8.68;1.30;;;;;;;2.83;96.28;99899.28;5107449;27;20715;-85
2021/12/02 04:33:56;;;;;;;5.00;0.90;;;;;;;2.80;96.71;99896.84;5107266;28;20035;-85
2021/12/02 04:36:22;;;;;;;7.10;1.35;;;;;;;2.83;96.15;99912.28;5106445;28;20115;-85
2021/12/02 04:38:47;;;;;;;6.07;1.02;;;;;;;2.82;96.27;99915.81;5103916;28;20042;-85
2021/12/02 04:41:15;;;;;;;5.22;1.20;;;;;;;2.78;96.73;99920.31;5086116;28;20066;-85
2021/12/02 04:43:43;;;;;;;9.18;1.38;;;;;;;2.81;97.20;99925.34;5087508;28;20063;-85
2021/12/02 04:46:09;;;;;;;8.43;1.30;;;;;;;2.79;96.87;99931.53;5087305;28;20107;-85
2021/12/02 04:48:34;;;;;;;6.68;1.20;;;;;;;2.74;97.02;99908.41;5086194;28;20095;-86
2021/12/02 04:51:00;;;;;;;4.70;1.10;;;;;;;2.81;96.95;99924.53;5086637;28;20127;-86
2021/12/02 04:53:25;;;;;;;8.60;1.52;;;;;;;2.75;96.49;99927.44;5086659;28;20556;-85
2021/12/02 04:55:51;;;;;;;6.07;1.15;;;;;;;2.73;96.27;99932.72;5086419;28;20094;-85
2021/12/02 04:58:17;;;;;;;6.03;1.35;;;;;;;2.79;96.16;99939.31;5086659;28;20036;-85
2021/12/02 05:00:45;;;;;;;8.23;1.30;;;;;;;2.71;96.21;99923.34;5088182;28;20415;-85
2021/12/02 05:03:13;;;;;;;6.13;1.30;;;;;;;2.75;96.99;99924.84;5100751;28;20047;-85
2021/12/02 05:05:39;;;;;;;7.82;1.40;;;;;;;2.77;96.63;99939.41;5089244;28;20561;-85
2021/12/02 05:08:04;;;;;;;8.57;1.45;;;;;;;2.74;97.30;99939.59;5105244;28;20063;-85
2021/12/02 05:10:30;;;;;;;5.40;1.90;;;;;;;2.78;97.66;99941.09;5104044;28;20038;-85
2021/12/02 05:12:55;;;;;;;8.07;1.58;;;;;;;2.73;97.32;99943.09;5105087;27;20088;-86
2021/12/02 05:15:21;;;;;;;9.68;1.65;;;;;;;2.77;97.72;99951.56;5125362;28;20026;-86
2021/12/02 05:17:47;;;;;;;8.00;1.35;;;;;;;2.80;97.67;99956.59;5125912;27;20068;-86
2021/12/02 05:20:12;;;;;;;10.88;1.50;;;;;;;2.81;97.42;99958.28;5126367;27;20015;-87
2021/12/02 05:22:38;;;;;;;11.38;1.13;;;;;;;2.80;97.52;99970.44;5126935;27;20106;-86
2021/12/02 05:25:04;;;;;;;6.03;1.10;;;;;;;2.75;97.17;99958.59;5126020;27;20028;-87
2021/12/02 05:27:30;;;;;;;4.93;0.90;;;;;;;2.77;97.21;99974.94;5118654;27;20034;-87
2021/12/02 05:29:55;;;;;;;7.53;1.10;;;;;;;2.72;96.50;99977.78;5100441;28;20044;-87
2021/12/02 05:32:20;;;;;;;6.90;0.85;;;;;;;2.70;96.61;99965.81;5104848;28;20062;-87
2021/12/02 05:34:49;;;;;;;3.92;0.73;;;;;;;2.65;95.48;99960.06;5105503;28;20020;-87
2021/12/02 05:37:15;;;;;;;9.40;0.70;;;;;;;2.63;95.98;99960.13;5105674;28;20057;-86
2021/12/02 05:39:41;;;;;;;6.65;1.13;;;;;;;2.58;96.02;99954.38;5104219;28;20030;-86
2021/12/02 05:42:06;;;;;;;6.78;0.70;;;;;;;2.55;96.58;99954.53;5095217;28;20020;-86
2021/12/02 05:44:32;;;;;;;6.28;1.05;;;;;;;2.56;96.28;99956.22;5091732;28;20035;-85
2021/12/02 05:46:57;;;;;;;4.45;0.82;;;;;;;2.49;96.30;99963.50;5090854;28;20051;-85
2021/12/02 05:49:23;;;;;;;4.63;0.80;;;;;;;2.51;96.82;99979.00;5090770;28;20174;-86
2021/12/02 05:51:49;;;;;;;4.97;1.38;;;;;;;2.49;96.66;99984.28;5091799;28;20024;-86
2021/12/02 05:54:14;;;;;;;4.53;1.27;;;;;;;2.47;96.68;99978.31;5092318;28;20427;-86
2021/12/02 05:56:40;;;;;;;6.47;0.95;;;;;;;2.47;97.15;99978.31;5092617;28;20051;-87
2021/12/02 05:59:06;;;;;;;9.65;1.20;;;;;;;2.46;96.67;99976.66;5090583;28;20042;-86
2021/12/02 06:01:31;;;;;;;4.60;0.90;;;;;;;2.44;97.19;99973.31;5090836;28;20344;-86
2021/12/02 06:03:57;;;;;;;3.25;0.75;;;;;;;2.41;96.31;99970.88;5079985;28;20016;-86
2021/12/02 06:06:27;;;;;;;3.63;0.70;;;;;;;2.39;96.51;99969.25;5091458;28;20472;-86
2021/12/02 06:08:52;;;;;;;2.15;0.80;;;;;;;2.37;96.06;99965.91;5090652;28;20051;-86
2021/12/02 06:11:18;;;;;;;6.70;0.80;;;;;;;2.33;96.23;99970.44;5091907;28;20021;-85
2021/12/02 06:13:45;;;;;;;4.10;0.68;;;;;;;2.31;96.53;99964.50;5102736;28;20027;-86
2021/12/02 06:16:11;;;;;;;3.88;0.70;;;;;;;2.26;95.88;99963.91;5112715;28;20369;-85
2021/12/02 06:18:36;;;;;;;5.10;0.70;;;;;;;2.22;95.45;99967.59;5111033;28;20084;-85
2021/12/02 06:21:02;;;;;;;4.07;0.95;;;;;;;2.13;95.69;99973.28;5085804;28;20032;-85
2021/12/02 06:23:27;;;;;;;2.00;0.65;;;;;;;2.04;95.86;99973.75;5071660;28;20024;-85
2021/12/02 06:25:52;;;;;;;3.00;0.80;;;;;;;2.04;96.16;99976.38;5072068;28;20372;-85
2021/12/02 06:28:18;;;;;;;1.90;0.60;;;;;;;2.04;96.48;99984.16;5083575;28;20368;-85
2021/12/02 06:30:44;;;;;;;4.13;1.00;;;;;;;1.98;95.99;99995.66;5089889;28;20123;-85
2021/12/02 06:33:10;;;;;;;3.65;0.80;;;;;;;1.99;96.23;99996.50;5090230;28;20706;-84
2021/12/02 06:35:36;;;;;;;2.00;0.90;;;;;;;2.02;96.62;99996.34;5091030;28;20028;-84
2021/12/02 06:38:01;;;;;;;4.35;1.20;;;;;;;2.00;97.24;99985.19;5084841;28;20036;-84
2021/12/02 06:40:27;;;;;;;3.45;0.90;;;;;;;2.01;97.23;99985.16;5091232;28;20031;-84
2021/12/02 06:42:53;;;;;;;4.15;1.17;;;;;;;2.01;97.50;99985.16;5089328;28;20719;-84
2021/12/02 06:45:19;;;;;;;6.00;1.33;;;;;;;2.01;97.61;99973.94;5089912;28;20032;-84
2021/12/02 06:47:46;;;;;;;4.57;1.60;;;;;;;2.01;97.39;99979.13;5090534;28;20467;-86
2021/12/02 06:50:18;;;;;;;8.18;1.77;;;;;;;2.01;98.09;99985.16;5106752;28;20035;-84
2021/12/02 06:52:48;;;;;;;5.55;2.28;;;;;;;1.99;97.62;100006.88;5089477;28;20076;-83
2021/12/02 06:55:13;;;;;;;5.25;2.10;;;;;;;1.99;97.87;100017.25;5085061;28;20077;-85
2021/12/02 06:57:39;;;;;;;6.18;2.00;;;;;;;2.01;97.70;100031.00;5089936;28;20019;-85
2021/12/02 07:00:08;;;;;;;5.72;2.00;;;;;;;1.99;97.88;100012.06;5090674;28;20020;-85
2021/12/02 07:02:34;;;;;;;4.97;1.88;;;;;;;2.00;97.59;100026.69;5087972;28;20020;-86
2021/12/02 07:05:01;;;;;;;8.40;2.25;;;;;;;2.04;98.00;100026.50;5089236;28;20069;-86
2021/12/02 07:07:31;;;;;;;6.57;2.08;;;;;;;2.06;98.27;100037.63;5090602;28;20059;-85
2021/12/02 07:09:56;;;;;;;4.13;2.30;;;;;;;2.08;98.45;100043.56;5081980;28;20024;-85
2021/12/02 07:12:28;;;;;;;12.15;2.80;;;;;;;2.10;98.19;100035.72;5068914;28;20067;-85
2021/12/02 07:14:54;;;;;;;11.15;3.28;;;;;;;2.11;98.41;100042.56;5075044;28;20027;-85
2021/12/02 07:17:19;;;;;;;5.25;2.58;;;;;;;2.13;98.45;100045.91;5089729;28;20036;-86
2021/12/02 07:19:45;;;;;;;7.75;2.60;;;;;;;2.16;98.04;100033.63;5089471;28;20107;-86
2021/12/02 07:22:10;;;;;;;11.57;2.65;;;;;;;2.16;98.43;100050.94;5089084;28;20077;-86
2021/12/02 07:24:35;;;;;;;4.45;2.17;;;;;;;2.16;98.83;100056.97;5088320;28;20059;-85
2021/12/02 07:27:01;;;;;;;5.00;2.35;;;;;;;2.17;97.98;100063.00;5087820;28;20027;-86
2021/12/02 07:29:26;;;;;;;6.10;2.10;;;;;;;2.19;97.82;100062.00;5087267;28;20047;-86
2021/12/02 07:31:52;;;;;;;11.15;2.40;;;;;;;2.19;98.37;100066.34;5089815;28;20102;-85
2021/12/02 07:34:20;;;;;;;4.70;2.60;;;;;;;2.21;97.99;100069.72;5088778;28;20468;-85
2021/12/02 07:36:47;;;;;;;5.72;2.70;;;;;;;2.21;97.94;100074.91;5089058;28;20072;-86
2021/12/02 07:39:13;;;;;;;7.15;2.85;;;;;;;2.22;98.05;100071.38;5089257;28;20024;-81
2021/12/02 07:41:40;;;;;;;7.28;2.92;;;;;;;2.26;98.78;100078.09;5090841;28;20576;-85
2021/12/02 07:44:06;;;;;;;9.10;2.90;;;;;;;2.23;98.22;100073.06;5085925;28;20433;-81
2021/12/02 07:46:32;;;;;;;7.95;2.60;;;;;;;2.23;98.72;100086.03;5088720;28;20091;-81
2021/12/02 07:48:58;;;;;;;5.68;2.35;;;;;;;2.22;98.37;100086.97;5088676;28;20019;-85
2021/12/02 07:51:29;;;;;;;6.90;2.50;;;;;;;2.24;98.63;100079.94;5088234;28;20320;-85
2021/12/02 07:53:55;;;;;;;6.68;2.47;;;;;;;2.24;98.17;100084.28;5090722;28;20480;-85
2021/12/02 07:56:23;;;;;;;7.05;2.60;;;;;;;2.18;97.56;100080.25;5090314;28;20179;-85
2021/12/02 07:58:49;;;;;;;9.27;3.22;;;;;;;2.14;97.24;100068.34;5089797;28;20499;-85
2021/12/02 08:01:15;;;;;;;7.07;3.05;;;;;;;2.13;97.21;100083.09;5085350;28;20050;-85
2021/12/02 08:03:44;;;;;;;7.38;3.40;;;;;;;2.11;97.93;100095.31;5082172;28;20035;-84
2021/12/02 08:06:14;;;;;;;6.72;3.65;;;;;;;2.10;97.16;100096.22;5088172;28;20035;-84
2021/12/02 08:08:45;;;;;;;9.20;3.42;;;;;;;2.07;97.22;100093.78;5089906;28;20036;-85
2021/12/02 08:11:14;;;;;;;10.48;3.50;;;;;;;2.04;97.13;100093.94;5088159;28;20032;-83
2021/12/02 08:13:39;;;;;;;8.23;3.20;;;;;;;2.00;96.98;100088.97;5090226;28;20031;-88
2021/12/02 08:16:07;;;;;;;5.93;3.10;;;;;;;2.04;96.94;100099.13;5068132;28;20388;-85
2021/12/02 08:18:33;;;;;;;7.78;3.10;;;;;;;1.97;96.62;100091.72;5079204;28;20028;-85
2021/12/02 08:21:20;;;;;;;6.82;2.97;;;;;;;1.95;97.12;100104.75;5079501;28;20095;-85
2021/12/02 08:23:46;;;;;;;6.65;3.35;;;;;;;1.90;96.90;100101.56;5068929;28;20032;-85
2021/12/02 08:26:16;;;;;;;7.80;3.30;;;;;;;1.88;96.88;100099.03;5083480;28;20024;-85
2021/12/02 08:28:41;;;;;;;6.72;3.00;;;;;;;1.87;96.39;100112.09;5085122;28;20116;-85
2021/12/02 08:31:07;;;;;;;9.05;3.08;;;;;;;1.88;96.83;100116.38;5088682;28;20114;-85
2021/12/02 08:33:32;;;;;;;5.88;3.60;;;;;;;1.83;96.50;100107.97;5087289;28;20040;-85
2021/12/02 08:35:58;;;;;;;8.65;4.10;;;;;;;1.84;96.51;100113.09;5087986;28;20120;-85
2021/12/02 08:38:31;;;;;;;79.43;10.55;;;;;;;1.81;96.75;100110.66;5089118;28;20119;-84
2021/12/02 08:40:58;;;;;;;262.50;24.15;;;;;;;1.80;96.66;100111.56;5088310;28;20026;-84
2021/12/02 08:43:23;;;;;;;86.93;9.35;;;;;;;1.82;97.74;100122.69;5071012;28;20048;-85
2021/12/02 08:45:49;;;;;;;10.10;2.17;;;;;;;1.80;97.18;100116.75;5089268;28;20051;-85
2021/12/02 08:48:14;;;;;;;9.35;2.30;;;;;;;1.85;97.24;100129.47;5087161;28;20024;-84
2021/12/02 08:50:40;;;;;;;7.63;2.00;;;;;;;1.85;97.35;100132.91;5089683;28;20368;-84
2021/12/02 08:53:07;;;;;;;7.63;2.10;;;;;;;1.85;97.76;100143.28;5089018;28;20032;-84
2021/12/02 08:55:33;;;;;;;7.57;2.35;;;;;;;1.87;97.83;100156.19;5088801;28;20057;-85
2021/12/02 08:58:00;;;;;;;7.38;3.00;;;;;;;1.88;98.48;100157.88;5087935;28;20048;-84
2021/12/02 09:00:33;;;;;;;8.00;2.90;;;;;;;1.97;97.92;100169.53;5088949;28;20024;-84
2021/12/02 09:03:00;;;;;;;11.63;3.13;;;;;;;1.99;98.36;100172.88;5086926;28;20479;-84
2021/12/02 09:05:25;;;;;;;9.73;3.00;;;;;;;1.99;98.92;100163.34;5087450;28;20070;-83
2021/12/02 09:07:51;;;;;;;9.57;2.78;;;;;;;1.99;98.71;100163.34;5088700;28;20052;-84
2021/12/02 09:10:16;;;;;;;6.93;3.88;;;;;;;2.03;98.79;100179.63;5067587;28;20089;-84
2021/12/02 09:12:44;;;;;;;8.90;4.15;;;;;;;2.06;98.64;100180.31;5071831;28;20032;-81
2021/12/02 09:15:10;;;;;;;7.78;3.95;;;;;;;2.14;98.93;100179.94;5088105;28;20031;-81
2021/12/02 09:17:36;;;;;;;6.80;3.30;;;;;;;2.17;99.23;100191.00;5091007;28;20066;-81
2021/12/02 09:20:04;;;;;;;8.15;2.90;;;;;;;2.24;99.28;100194.13;5075038;28;20328;-81
2021/12/02 09:22:30;;;;;;;11.75;2.70;;;;;;;2.29;99.14;100192.13;5070633;28;20039;-80
2021/12/02 09:24:55;;;;;;;12.63;2.72;;;;;;;2.32;98.68;100191.13;5072206;28;20020;-81
2021/12/02 09:27:20;;;;;;;7.30;2.20;;;;;;;2.31;98.41;100198.06;5077231;28;20042;-80
2021/12/02 09:29:46;;;;;;;6.20;2.08;;;;;;;2.35;98.08;100207.38;5090052;28;20067;-80
2021/12/02 09:32:15;;;;;;;7.32;2.00;;;;;;;2.30;97.04;100201.59;5092035;28;20031;-81
2021/12/02 09:34:40;;;;;;;10.93;2.20;;;;;;;2.32;96.53;100202.34;5090803;28;20039;-80
2021/12/02 09:37:06;;;;;;;8.35;1.98;;;;;;;2.32;96.72;100204.94;5086441;28;20032;-80
2021/12/02 09:39:33;;;;;;;12.10;2.13;;;;;;;2.32;96.46;100206.72;5091046;28;20020;-81
2021/12/02 09:42:00;;;;;;;7.43;2.00;;;;;;;2.31;96.87;100205.88;5092634;28;20077;-81
2021/12/02 09:44:27;;;;;;;8.13;2.22;;;;;;;2.33;97.46;100209.22;5092365;28;20028;-84
2021/12/02 09:46:53;;;;;;;10.48;1.80;;;;;;;2.33;97.51;100204.03;5091215;28;20039;-85
2021/12/02 09:49:19;;;;;;;8.50;1.85;;;;;;;2.38;98.16;100212.41;5092361;28;20372;-85
2021/12/02 09:52:00;;;;;;;10.40;2.28;;;;;;;2.42;97.87;100218.31;5091883;28;20077;-84
2021/12/02 09:54:30;;;;;;;9.43;2.15;;;;;;;2.43;97.38;100215.66;5092471;28;20031;-84
2021/12/02 09:56:59;;;;;;;5.25;1.77;;;;;;;2.44;97.83;100212.13;5092554;28;20069;-84
2021/12/02 09:59:34;;;;;;;6.15;2.10;;;;;;;2.45;97.30;100219.00;5091711;28;20024;-85
2021/12/02 10:02:03;;;;;;;9.70;2.33;;;;;;;2.47;97.49;100206.78;5090450;28;20123;-86
2021/12/02 10:04:30;;;;;;;6.90;2.10;;;;;;;2.50;97.53;100206.63;5090748;28;20126;-84
2021/12/02 10:07:13;;;;;;;11.27;2.70;;;;;;;2.55;98.01;100211.59;5089982;28;20056;-85
2021/12/02 10:09:49;;;;;;;11.63;2.60;;;;;;;2.58;97.84;100208.81;5085903;28;20036;-84
2021/12/02 10:12:20;;;;;;;8.55;2.58;;;;;;;2.63;97.79;100206.00;5085894;28;20028;-85
2021/12/02 10:14:54;;;;;;;8.20;2.45;;;;;;;2.64;98.24;100211.09;5091691;28;20035;-84
2021/12/02 10:17:29;;;;;;;6.95;2.30;;;;;;;2.68;97.27;100214.38;5091848;28;20020;-84
2021/12/02 10:20:13;;;;;;;6.90;2.50;;;;;;;2.74;97.68;100214.06;5089917;28;20020;-85
2021/12/02 10:22:40;;;;;;;7.80;2.53;;;;;;;2.76;97.95;100222.63;5091785;28;20107;-84
2021/12/02 10:25:05;;;;;;;9.00;2.22;;;;;;;2.79;97.32;100222.44;5091291;28;20463;-85
2021/12/02 10:27:31;;;;;;;10.75;3.78;;;;;;;2.83;97.39;100229.19;5090192;28;20237;-85
2021/12/02 10:29:56;;;;;;;8.65;3.05;;;;;;;2.87;97.72;100228.13;5090660;28;20052;-85
2021/12/02 10:32:25;;;;;;;10.35;2.65;;;;;;;2.91;96.82;100236.59;5091422;28;20093;-85
2021/12/02 10:35:06;;;;;;;7.68;2.53;;;;;;;2.93;96.82;100237.34;5090949;28;20024;-85
2021/12/02 10:37:34;;;;;;;10.55;2.13;;;;;;;2.93;96.07;100239.94;5086293;28;20045;-84
2021/12/02 10:40:04;;;;;;;14.77;3.03;;;;;;;2.92;95.95;100244.31;5090755;28;20060;-84
2021/12/02 10:42:32;;;;;;;15.02;2.88;;;;;;;2.90;95.88;100237.50;5091284;28;20065;-84
2021/12/02 10:45:00;;;;;;;9.25;2.38;;;;;;;2.91;96.43;100245.22;5089711;28;20430;-84
2021/12/02 10:47:26;;;;;;;7.03;2.63;;;;;;;2.89;96.37;100249.66;5089759;28;20028;-84
2021/12/02 10:49:58;;;;;;;15.07;3.10;;;;;;;2.90;95.87;100258.28;5090732;28;20463;-85
2021/12/02 10:52:25;;;;;;;14.05;3.65;;;;;;;2.92;96.60;100254.69;5089924;28;20479;-84
2021/12/02 10:54:56;;;;;;;9.45;3.28;;;;;;;2.91;96.88;100258.22;5089257;28;20050;-84
2021/12/02 10:57:24;;;;;;;12.13;3.03;;;;;;;2.92;96.82;100252.09;5090676;28;20024;-84
2021/12/02 10:59:56;;;;;;;10.23;3.28;;;;;;;2.96;96.73;100261.41;5089509;28;20464;-84
2021/12/02 11:02:23;;;;;;;10.10;3.05;;;;;;;3.00;97.21;100260.31;5089167;28;20028;-84
2021/12/02 11:05:00;;;;;;;8.45;3.20;;;;;;;3.03;97.01;100261.91;5091165;28;20480;-84
2021/12/02 11:07:29;;;;;;;10.55;2.50;;;;;;;3.03;97.18;100262.75;5091085;28;20043;-84
2021/12/02 11:09:56;;;;;;;11.15;3.20;;;;;;;3.05;96.75;100260.91;5088627;28;20039;-84
2021/12/02 11:12:26;;;;;;;9.85;3.00;;;;;;;3.10;97.28;100269.31;5090633;28;20785;-84
2021/12/02 11:15:16;;;;;;;11.63;3.20;;;;;;;3.12;97.04;100267.47;5086145;28;20027;-84
2021/12/02 11:17:47;;;;;;;6.13;2.72;;;;;;;3.14;96.91;100270.81;5078857;28;20030;-85
2021/12/02 11:20:42;;;;;;;8.18;2.78;;;;;;;3.18;96.95;100281.91;5090859;28;20026;-85
2021/12/02 11:23:14;;;;;;;13.93;3.03;;;;;;;3.19;97.21;100273.19;5088485;28;20028;-85
2021/12/02 11:25:56;;;;;;;12.13;3.40;;;;;;;3.21;96.17;100275.72;5089663;28;20474;-85
2021/12/02 11:28:23;;;;;;;14.40;6.55;;;;;;;3.23;96.39;100273.88;5083214;28;20020;-85
2021/12/02 11:30:49;;;;;;;11.82;3.92;;;;;;;3.22;96.28;100275.66;5088745;28;20075;-84
2021/12/02 11:33:21;;;;;;;9.98;4.20;;;;;;;3.25;96.08;100279.84;5088447;28;20107;-85
2021/12/02 11:35:48;;;;;;;10.80;4.13;;;;;;;3.30;96.88;100280.44;5089721;28;20016;-85
2021/12/02 11:38:19;;;;;;;8.88;3.40;;;;;;;3.40;97.55;100281.63;5089142;28;20138;-84
2021/12/02 11:40:48;;;;;;;7.55;2.40;;;;;;;3.51;97.79;100294.88;5088950;28;20487;-84
2021/12/02 11:43:16;;;;;;;8.80;1.90;;;;;;;3.60;96.38;100288.34;5088946;28;20032;-84
2021/12/02 11:45:46;;;;;;;5.68;1.83;;;;;;;3.60;95.25;100296.13;5088378;28;20082;-84
2021/12/02 11:48:21;;;;;;;8.43;2.03;;;;;;;3.62;94.84;100292.56;5088518;28;20030;-84
2021/12/02 11:50:48;;;;;;;6.93;2.10;;;;;;;3.62;95.25;100295.16;5089125;28;20027;-84
2021/12/02 11:53:14;;;;;;;10.90;2.30;;;;;;;3.66;95.91;100296.66;5089435;28;20031;-84
2021/12/02 11:55:42;;;;;;;5.93;1.55;;;;;;;3.69;95.16;100301.69;5089600;28;20450;-84